Wilson, Texas
Current Conditions -  °F | °C
As of 8:53 AM on Wednesday 26 Nov 2014 (Local Time) from KLBB Reporting Station
Broken Clouds Broken Clouds  
Wind Chill: 35°   Ceiling: 30000
Heat Index: 42°   Visibility: 10mi
Dew Point: 28°   Wind: 15mph
Humidity: 58%   Direction: 20°NNE
Pressure: 30.23"   Gusts: 22mph
Location:  33.32°N, 101.72°W
Report Text: KLBB 261453Z 02013G19KT 10SM SCT260 BKN300 06/M02 A3023 RMK AO2 SLP227 T00561022 51037
Loading
Personal Weather Stations






























Interactive Weather Map New forecast layout! Learn more

10-Day Weather Forecast

Advertisements
Track Severe Weather on mobile